Landrum, SC (29356)

5:31 PM EDT on August 30, 2015 (GMT -0400)
Paulownia Vineyards | | Change Station
CLOSE
Current Station
Personal Weather Station
Location: Landrum, SC
Elevation: 994 ft
Nearby Weather Stations

Elev 994 ft 35.15 °N, 82.19 °W | Updated 1 minute ago

Mostly Cloudy
Mostly Cloudy
77.2 °F
Feels Like 79 °F
N
0.0
Wind Variable Wind from ENE
Gusts 0.0 mph

Today
High -- | Low -- °F
--% Chance of Precip.
Yesterday
High -- | Low -- °F
Precip. -- in
6:59 AM 7:58 PM
Full, 98% visible
Pressure 30.09 in
Visibility 10.0 miles
Clouds Mostly Cloudy 6000 ft
Overcast 8000 ft
Heat Index 79 °F
Dew Point 69 °F
Humidity 75%
Rainfall 0.00 in
Snow Depth Not available.
UV 1 out of 12
Pollen 4.30 out of 12
Air Quality Not available.
Flu Activity Not available.
METAR KGSP 302053Z 14006KT 10SM -RA BKN060 OVC080 26/15 A3013 RMK AO2 RAB53 SLP190 P0000 60000 T02560150 55010
Pressure 30.09 in
Visibility 10.0 miles
Clouds Mostly Cloudy 6000 ft
Overcast 8000 ft
Heat Index 79 °F
Dew Point 69 °F
Humidity 75%
Rainfall 0.00 in
Snow Depth Not available.
UV 1 out of 12
Pollen 4.30 out of 12
Air Quality Not available.
Flu Activity Not available.
METAR KGSP 302053Z 14006KT 10SM -RA BKN060 OVC080 26/15 A3013 RMK AO2 RAB53 SLP190 P0000 60000 T02560150 55010

10-Day Weather Forecast

×

Almanac

Astronomy

Aug. 30, 2015 Rise Set
Actual Time
Civil Twilight
Nautical Twilight
Astronomical Twilight
Moon
Length of Visible Light
Length of Day
Tomorrow will be .
, % of the Moon is Illuminated

Today's Extremes

State Highs State Lows

Community

WunderPhotos

Upload Photos

1,851,063 photos uploaded!

WunderBlogs® & News

Nearby

Air Quality

  Air Quality AQ Index Pollutant
Not available.

Snow Depth

Station Depth Elevation

Earthquake Activity

City Distance Mag. Time & Date
Minimum magnitude displayed is 2.5.

Coastal Water Temperatures

Place Temperature

Stations

Nearby Weather Stations

Station Location Temp. Windchill Dew Point Humidity Wind Precip. Elev Updated Type